Time;durP1;ratioP1;P1;durP2;ratioP2;P2;SDS_P1;SDS_P2;PMS_P1;PMS_P2;Temp;Humidity;BMP_temperature;BMP_pressure;BME280_temperature;BME280_humidity;BME280_pressure;Samples;Min_cycle;Max_cycle;Signal;HPM_P1;HPM_P2
2022/04/06 00:02:12;;;;;;;21.58;5.28;;;;;;;-142.75;100.00;76741.56;5046074;28;20108;-68
2022/04/06 00:04:38;;;;;;;20.75;5.05;;;;;;;-142.75;100.00;76721.88;5032581;28;20048;-66
2022/04/06 00:07:04;;;;;;;14.48;5.57;;;;;;;-142.75;100.00;76723.84;5040711;28;20036;-69
2022/04/06 00:09:30;;;;;;;21.08;5.57;;;;;;;-142.75;100.00;76719.91;5039860;28;21819;-68
2022/04/06 00:11:55;;;;;;;22.33;5.13;;;;;;;-142.75;100.00;76723.84;5042113;28;20037;-70
2022/04/06 00:14:21;;;;;;;13.20;4.55;;;;;;;-142.75;100.00;76719.91;5036477;28;20020;-68
2022/04/06 00:16:46;;;;;;;17.63;4.32;;;;;;;-142.75;100.00;76715.97;5050658;28;20474;-68
2022/04/06 00:19:12;;;;;;;14.63;4.38;;;;;;;-142.75;100.00;76717.94;5042391;28;20036;-68
2022/04/06 00:21:37;;;;;;;21.98;5.80;;;;;;;-142.75;100.00;76719.91;5034917;28;20052;-66
2022/04/06 00:24:03;;;;;;;14.38;4.63;;;;;;;-142.75;100.00;76710.06;5035072;28;20029;-68
2022/04/06 00:26:28;;;;;;;16.02;3.85;;;;;;;-142.75;100.00;76712.03;5039863;28;20029;-68
2022/04/06 00:28:53;;;;;;;18.42;4.40;;;;;;;-142.75;100.00;76708.09;5033154;28;20076;-68
2022/04/06 00:31:19;;;;;;;17.67;4.53;;;;;;;-142.75;100.00;76706.13;5047105;28;20043;-69
2022/04/06 00:33:44;;;;;;;16.10;3.42;;;;;;;-142.75;100.00;76712.03;5038922;28;20037;-69
2022/04/06 00:36:10;;;;;;;14.43;4.55;;;;;;;-142.75;100.00;76702.19;5040178;28;20025;-68
2022/04/06 00:38:35;;;;;;;11.25;4.30;;;;;;;-142.75;100.00;76700.22;5042828;28;20429;-68
2022/04/06 00:41:00;;;;;;;12.10;4.40;;;;;;;-142.75;100.00;76698.25;5036878;28;20036;-67
2022/04/06 00:43:26;;;;;;;13.60;3.90;;;;;;;-142.75;100.00;76690.38;5041426;28;20029;-67
2022/04/06 00:45:51;;;;;;;13.15;3.65;;;;;;;-142.75;100.00;76688.41;5031867;28;20537;-68
2022/04/06 00:48:16;;;;;;;9.77;2.92;;;;;;;-142.75;100.00;76692.34;5037015;28;20143;-68
2022/04/06 00:50:42;;;;;;;10.55;4.38;;;;;;;-142.75;100.00;76686.44;5037457;28;20028;-67
2022/04/06 00:53:08;;;;;;;22.75;3.35;;;;;;;-142.75;100.00;76688.41;5046174;28;20104;-66
2022/04/06 00:55:36;;;;;;;15.45;3.75;;;;;;;-142.75;100.00;76676.59;5042537;28;20025;-68
2022/04/06 00:58:03;;;;;;;18.75;3.10;;;;;;;-142.75;100.00;76680.53;5038159;28;20053;-69
2022/04/06 01:00:29;;;;;;;12.20;3.17;;;;;;;-142.75;100.00;76684.47;5030064;28;20021;-67
2022/04/06 01:02:54;;;;;;;15.10;3.53;;;;;;;-142.75;100.00;76676.59;5038317;28;20033;-68
2022/04/06 01:05:20;;;;;;;15.63;3.90;;;;;;;-142.75;100.00;76684.47;5048563;28;20386;-68
2022/04/06 01:07:49;;;;;;;17.85;3.50;;;;;;;-142.75;100.00;76684.47;5035906;28;20032;-68
2022/04/06 01:10:15;;;;;;;19.25;3.65;;;;;;;-142.75;100.00;76684.47;5049877;28;20025;-67
2022/04/06 01:12:40;;;;;;;21.35;3.72;;;;;;;-142.75;100.00;76684.47;5035601;28;20044;-68
2022/04/06 01:15:07;;;;;;;16.13;3.30;;;;;;;-142.75;100.00;76680.53;5045876;28;20429;-69
2022/04/06 01:17:34;;;;;;;18.23;3.03;;;;;;;-142.75;100.00;76676.59;5046508;28;20430;-67
2022/04/06 01:20:00;;;;;;;14.40;3.13;;;;;;;-142.75;100.00;76678.56;5037334;28;20025;-68
2022/04/06 01:22:26;;;;;;;15.13;2.53;;;;;;;-142.75;100.00;76682.50;5044042;28;20112;-68
2022/04/06 01:24:51;;;;;;;;;;;;;;;-142.75;100.00;76680.53;5045994;28;20030;-68
2022/04/06 01:27:17;;;;;;;17.85;2.95;;;;;;;-142.75;100.00;76680.53;5039708;28;19923;-67
2022/04/06 01:29:44;;;;;;;17.00;2.65;;;;;;;-142.75;100.00;76684.47;5050549;28;20033;-67
2022/04/06 01:32:24;;;;;;;17.30;2.65;;;;;;;-142.75;100.00;76688.41;5047664;28;20017;-68
2022/04/06 01:34:53;;;;;;;15.70;2.60;;;;;;;-142.75;100.00;76694.31;5040510;28;20021;-68
2022/04/06 01:37:18;;;;;;;15.32;3.28;;;;;;;-142.75;100.00;76686.44;5038282;28;20039;-67
2022/04/06 01:39:46;;;;;;;14.65;3.22;;;;;;;-142.75;100.00;76684.47;5050263;28;20025;-68
2022/04/06 01:42:15;;;;;;;12.88;2.17;;;;;;;-142.75;100.00;76692.34;5034325;28;20025;-66
2022/04/06 01:44:41;;;;;;;8.23;2.30;;;;;;;-142.75;100.00;76684.47;5045610;28;20035;-68
2022/04/06 01:47:07;;;;;;;8.98;2.30;;;;;;;-142.75;100.00;76688.41;5043616;28;20025;-68
2022/04/06 01:52:16;;;;;;;13.52;2.30;;;;;;;-142.75;100.00;76692.34;5037035;28;20059;-69
2022/04/06 01:54:47;;;;;;;12.77;2.67;;;;;;;-142.75;100.00;76698.25;5042360;28;20021;-67
2022/04/06 01:57:13;;;;;;;11.60;2.03;;;;;;;-142.75;100.00;76696.28;5041001;28;20025;-68
2022/04/06 01:59:38;;;;;;;8.70;1.73;;;;;;;-142.75;100.00;76702.19;5041790;28;20021;-67
2022/04/06 02:02:06;;;;;;;8.75;2.05;;;;;;;-142.75;100.00;76696.28;5043274;28;20109;-68
2022/04/06 02:04:32;;;;;;;14.32;2.33;;;;;;;-142.75;100.00;76700.22;5038945;28;20033;-67
2022/04/06 02:06:58;;;;;;;12.15;2.50;;;;;;;-142.75;100.00;76692.34;5043697;28;20086;-68
2022/04/06 02:11:55;;;;;;;9.00;2.38;;;;;;;-142.75;100.00;76696.28;5052184;22;20045;-66
2022/04/06 02:14:22;;;;;;;9.27;1.70;;;;;;;-142.75;100.00;76700.22;5029482;28;20044;-67
2022/04/06 02:16:47;;;;;;;11.43;1.85;;;;;;;-142.75;100.00;76696.28;5030599;28;20037;-67
2022/04/06 02:19:13;;;;;;;12.40;2.00;;;;;;;-142.75;100.00;76702.19;5030350;28;20514;-68
2022/04/06 02:21:38;;;;;;;10.07;1.90;;;;;;;-142.75;100.00;76692.34;5020380;28;20049;-67
2022/04/06 02:24:03;;;;;;;8.30;1.92;;;;;;;-142.75;100.00;76688.41;5011184;28;20424;-68
2022/04/06 02:26:29;;;;;;;10.73;2.53;;;;;;;-142.75;100.00;76698.25;5010887;28;20026;-67
2022/04/06 02:28:55;;;;;;;7.35;1.83;;;;;;;-142.75;100.00;76698.25;5010612;28;20025;-68
2022/04/06 02:31:21;;;;;;;9.75;2.10;;;;;;;-142.75;100.00;76704.16;5010629;28;20506;-67
2022/04/06 02:33:47;;;;;;;6.70;1.60;;;;;;;-142.75;100.00;76694.31;5010706;28;20034;-68
2022/04/06 02:36:12;;;;;;;10.77;2.00;;;;;;;-142.75;100.00;76698.25;5010708;28;20096;-67
2022/04/06 02:38:38;;;;;;;5.95;1.63;;;;;;;-142.75;100.00;76694.31;5009122;28;20054;-67
2022/04/06 02:41:07;;;;;;;11.43;2.50;;;;;;;-142.75;100.00;76690.38;5010484;28;20022;-67
2022/04/06 02:43:33;;;;;;;6.50;1.60;;;;;;;-142.75;100.00;76700.22;5010460;28;20036;-67
2022/04/06 02:45:59;;;;;;;9.32;2.25;;;;;;;-142.75;100.00;76700.22;5010635;28;20040;-66
2022/04/06 02:48:25;;;;;;;6.97;1.60;;;;;;;-142.75;100.00;76706.13;5011593;28;20029;-66
2022/04/06 02:50:50;;;;;;;10.23;1.77;;;;;;;-142.75;100.00;76706.13;5014187;28;20026;-66
2022/04/06 02:53:15;;;;;;;9.20;1.50;;;;;;;-142.75;100.00;76715.97;5014032;28;20535;-67
2022/04/06 02:55:41;;;;;;;5.68;1.30;;;;;;;-142.75;100.00;76723.84;5014083;28;20022;-67
2022/04/06 02:58:06;;;;;;;6.63;1.65;;;;;;;-142.75;100.00;76719.91;5013901;28;20601;-66
2022/04/06 03:00:32;;;;;;;8.30;1.35;;;;;;;-142.75;100.00;76719.91;5032438;28;20047;-66
2022/04/06 03:02:58;;;;;;;8.10;1.92;;;;;;;-142.75;100.00;76719.91;5033554;28;20017;-67
2022/04/06 03:05:24;;;;;;;7.60;1.70;;;;;;;-142.75;100.00;76723.84;5033602;28;20075;-67
2022/04/06 03:07:50;;;;;;;5.57;1.17;;;;;;;-142.75;100.00;76723.84;5033368;28;20040;-66
2022/04/06 03:10:15;;;;;;;8.10;1.13;;;;;;;-142.75;100.00;76725.81;5033301;28;20025;-67
2022/04/06 03:12:40;;;;;;;4.53;1.25;;;;;;;-142.75;100.00;76727.78;5032332;28;20017;-67
2022/04/06 03:15:06;;;;;;;6.05;1.65;;;;;;;-142.75;100.00;76731.72;5033295;28;20029;-66
2022/04/06 03:17:31;;;;;;;4.95;0.93;;;;;;;-142.75;100.00;76727.78;5033320;28;20533;-66
2022/04/06 03:19:57;;;;;;;7.13;1.15;;;;;;;-142.75;100.00;76731.72;5032990;28;20041;-67
2022/04/06 03:22:22;;;;;;;7.23;1.03;;;;;;;-142.75;100.00;76721.88;5033358;28;20037;-67
2022/04/06 03:24:47;;;;;;;12.10;1.27;;;;;;;-142.75;100.00;76731.72;5033416;28;20345;-67
2022/04/06 03:27:13;;;;;;;10.98;1.40;;;;;;;-142.75;100.00;76727.78;5032954;28;20029;-65
2022/04/06 03:29:40;;;;;;;;;;;;;;;-142.75;100.00;76715.97;5033172;28;20477;-66
2022/04/06 03:32:06;;;;;;;6.53;1.40;;;;;;;-142.75;100.00;76714.00;5033068;28;20365;-66
2022/04/06 03:34:32;;;;;;;8.20;1.15;;;;;;;-142.75;100.00;76708.09;5031812;28;20080;-67
2022/04/06 03:36:57;;;;;;;11.65;1.75;;;;;;;-142.75;100.00;76704.16;5032992;28;20438;-66
2022/04/06 03:39:22;;;;;;;6.78;1.30;;;;;;;-142.75;100.00;76696.28;5032549;28;20025;-66
2022/04/06 03:41:48;;;;;;;15.95;1.35;;;;;;;-142.75;100.00;76692.34;5031522;28;20536;-66
2022/04/06 03:44:13;;;;;;;6.60;1.02;;;;;;;-142.75;100.00;76692.34;5032848;28;20036;-66
2022/04/06 03:46:38;;;;;;;7.82;0.80;;;;;;;-142.75;100.00;76684.47;5032692;28;20027;-69
2022/04/06 03:49:04;;;;;;;12.88;1.67;;;;;;;-142.75;100.00;76680.53;5032470;28;20033;-67
2022/04/06 03:51:29;;;;;;;4.82;1.08;;;;;;;-142.75;100.00;76688.41;5032785;28;20403;-67
2022/04/06 03:53:54;;;;;;;15.88;1.70;;;;;;;-142.75;100.00;76682.50;5032491;28;20079;-67
2022/04/06 03:56:20;;;;;;;8.48;1.75;;;;;;;-142.75;100.00;76682.50;5032607;28;20025;-67
2022/04/06 03:58:45;;;;;;;10.52;1.88;;;;;;;-142.75;100.00;76670.69;5032168;28;20044;-67
2022/04/06 04:01:10;;;;;;;12.98;1.85;;;;;;;-142.75;100.00;76672.66;5031687;28;20036;-66
2022/04/06 04:03:35;;;;;;;12.23;2.22;;;;;;;-142.75;100.00;76668.72;5032516;28;20033;-67
2022/04/06 04:06:01;;;;;;;11.43;1.63;;;;;;;-142.75;100.00;76674.63;5031117;28;20368;-65
2022/04/06 04:08:27;;;;;;;11.47;1.77;;;;;;;-142.75;100.00;76664.78;5031956;28;20272;-67
2022/04/06 04:10:53;;;;;;;6.68;1.42;;;;;;;-142.75;100.00;76668.72;5032060;28;20283;-67
2022/04/06 04:13:18;;;;;;;10.32;1.80;;;;;;;-142.75;100.00;76662.81;5031042;28;20025;-67
2022/04/06 04:15:44;;;;;;;9.05;1.38;;;;;;;-142.75;100.00;76660.84;5032149;28;20021;-68
2022/04/06 04:18:09;;;;;;;5.93;1.42;;;;;;;-142.75;100.00;76660.84;5030716;28;20021;-68
2022/04/06 04:20:34;;;;;;;5.05;1.15;;;;;;;-142.75;100.00;76651.00;5032001;28;20438;-67
2022/04/06 04:23:00;;;;;;;11.77;1.67;;;;;;;-142.75;100.00;76652.97;5030810;28;20072;-67
2022/04/06 04:25:25;;;;;;;9.68;1.65;;;;;;;-142.75;100.00;76649.03;5032137;28;20036;-67
2022/04/06 04:27:50;;;;;;;7.75;1.73;;;;;;;-142.75;100.00;76645.09;5031643;28;20022;-66
2022/04/06 04:30:16;;;;;;;8.57;1.45;;;;;;;-142.75;100.00;76652.97;5031871;28;20071;-67
2022/04/06 04:32:41;;;;;;;11.98;1.77;;;;;;;-142.75;100.00;76649.03;5030562;28;20402;-67
2022/04/06 04:35:08;;;;;;;11.23;1.58;;;;;;;-142.75;100.00;76649.03;5031838;28;20513;-67
2022/04/06 04:37:33;;;;;;;9.88;1.60;;;;;;;-142.75;100.00;76651.00;5031634;28;20035;-67
2022/04/06 04:39:59;;;;;;;10.95;1.70;;;;;;;-142.75;100.00;76645.09;5031502;28;20116;-67
2022/04/06 04:42:24;;;;;;;10.52;1.67;;;;;;;-142.75;100.00;76641.16;5031612;28;20020;-67
2022/04/06 04:44:49;;;;;;;14.13;1.95;;;;;;;-142.75;100.00;76637.22;5031667;28;20025;-65
2022/04/06 04:47:16;;;;;;;7.10;1.67;;;;;;;-142.75;100.00;76629.34;5031442;28;20033;-65
2022/04/06 04:49:42;;;;;;;7.88;1.75;;;;;;;-142.75;100.00;76633.28;5030507;28;20391;-66
2022/04/06 04:52:08;;;;;;;14.77;2.65;;;;;;;-142.75;100.00;76637.22;5031555;28;20033;-66
2022/04/06 04:54:33;;;;;;;10.13;1.70;;;;;;;-142.75;100.00;76625.41;5031571;28;20446;-66
2022/04/06 04:56:58;;;;;;;10.15;2.10;;;;;;;-142.75;100.00;76629.34;5031493;28;20022;-67
2022/04/06 04:59:25;;;;;;;8.38;1.92;;;;;;;-142.75;100.00;76621.47;5031123;28;20022;-67
2022/04/06 05:01:50;;;;;;;9.45;2.05;;;;;;;-142.75;100.00;76619.50;5030031;28;20456;-67
2022/04/06 05:04:15;;;;;;;9.73;2.15;;;;;;;-142.75;100.00;76625.41;5031379;28;20108;-67
2022/04/06 05:06:41;;;;;;;5.70;1.80;;;;;;;-142.75;100.00;76623.44;5031250;28;20062;-67
2022/04/06 05:09:06;;;;;;;6.32;2.10;;;;;;;-142.75;100.00;76621.47;5030959;28;20085;-68
2022/04/06 05:11:31;;;;;;;9.32;2.10;;;;;;;-142.75;100.00;76617.53;5030938;28;20438;-66
2022/04/06 05:13:57;;;;;;;13.25;3.47;;;;;;;-142.75;100.00;76613.59;5031272;28;20117;-67
2022/04/06 05:16:22;;;;;;;9.20;1.98;;;;;;;-142.75;100.00;76619.50;5031253;28;20049;-66
2022/04/06 05:18:47;;;;;;;16.77;3.15;;;;;;;-142.75;100.00;76625.41;5030992;28;20630;-67
2022/04/06 05:21:13;;;;;;;9.38;2.22;;;;;;;-142.75;100.00;76617.53;5030991;28;20029;-67
2022/04/06 05:23:38;;;;;;;9.97;2.33;;;;;;;-142.75;100.00;76617.53;5031124;28;20026;-66
2022/04/06 05:26:03;;;;;;;10.50;2.13;;;;;;;-142.75;100.00;76609.66;5031036;28;20272;-66
2022/04/06 05:28:29;;;;;;;10.88;2.50;;;;;;;-142.75;100.00;76611.63;5030884;28;20083;-67
2022/04/06 05:30:54;;;;;;;7.80;2.20;;;;;;;-142.75;100.00;76605.72;5030980;28;20044;-67
2022/04/06 05:33:19;;;;;;;10.75;2.63;;;;;;;-142.75;100.00;76601.78;5030985;28;20036;-67
2022/04/06 05:35:45;;;;;;;7.95;2.25;;;;;;;-142.75;100.00;76603.75;5031002;28;20025;-67
2022/04/06 05:38:10;;;;;;;12.25;2.65;;;;;;;-142.75;100.00;76609.66;5029222;28;20065;-67
2022/04/06 05:40:36;;;;;;;9.27;1.88;;;;;;;-142.75;100.00;76607.69;5031009;28;20403;-67
2022/04/06 05:43:02;;;;;;;8.43;1.45;;;;;;;-142.75;100.00;76605.72;5013120;28;20721;-67
2022/04/06 05:45:28;;;;;;;8.68;1.73;;;;;;;-142.75;100.00;76609.66;5030242;28;20026;-67
2022/04/06 05:47:53;;;;;;;8.45;1.73;;;;;;;-142.75;100.00;76611.63;5030878;28;20496;-67
2022/04/06 05:50:18;;;;;;;15.05;1.90;;;;;;;-142.75;100.00;76613.59;5029924;28;20487;-68
2022/04/06 05:52:44;;;;;;;7.20;1.02;;;;;;;-142.75;100.00;76603.75;5029506;28;20060;-67
2022/04/06 05:55:10;;;;;;;11.30;2.13;;;;;;;-142.75;100.00;76593.91;5030649;28;20475;-67
2022/04/06 05:57:35;;;;;;;4.55;1.48;;;;;;;-142.75;100.00;76593.91;5030679;28;20037;-67
2022/04/06 06:00:00;;;;;;;7.88;1.35;;;;;;;-142.75;100.00;76582.09;5030145;28;20017;-67
2022/04/06 06:02:26;;;;;;;5.15;1.67;;;;;;;-142.75;100.00;76582.09;5030818;28;20498;-66
2022/04/06 06:04:52;;;;;;;8.10;1.55;;;;;;;-142.75;100.00;76582.09;5030505;28;20021;-67
2022/04/06 06:07:21;;;;;;;;;;;;;;;-142.75;100.00;76582.09;5030791;28;20026;-66
2022/04/06 06:09:46;;;;;;;5.50;1.15;;;;;;;-142.75;100.00;76586.03;5029115;28;19936;-67
2022/04/06 06:12:12;;;;;;;5.60;1.40;;;;;;;-142.75;100.00;76578.16;5029504;28;20486;-67
2022/04/06 06:14:38;;;;;;;6.07;1.30;;;;;;;-142.75;100.00;76570.28;5029508;28;20029;-66
2022/04/06 06:17:03;;;;;;;11.05;1.15;;;;;;;-142.75;100.00;76574.22;5029612;28;20033;-67
2022/04/06 06:19:29;;;;;;;5.38;0.77;;;;;;;-142.75;100.00;76570.28;5029239;28;20021;-67
2022/04/06 06:21:54;;;;;;;6.03;0.95;;;;;;;-142.75;100.00;76566.34;5012092;28;20088;-67
2022/04/06 06:24:20;;;;;;;8.70;1.40;;;;;;;-142.75;100.00;76564.38;5012069;28;20044;-67
2022/04/06 06:26:46;;;;;;;6.80;0.90;;;;;;;-142.75;100.00;76554.53;5031714;28;20025;-67
2022/04/06 06:29:12;;;;;;;4.97;0.95;;;;;;;-142.75;100.00;76552.56;5032640;28;20030;-67
2022/04/06 06:31:37;;;;;;;4.97;0.95;;;;;;;-142.75;100.00;76550.59;5031663;28;20552;-66
2022/04/06 06:34:03;;;;;;;6.35;0.90;;;;;;;-142.75;100.00;76542.72;5032971;28;20068;-66
2022/04/06 06:36:28;;;;;;;7.85;1.02;;;;;;;-142.75;100.00;76534.84;5032901;28;20455;-66
2022/04/06 06:38:54;;;;;;;5.50;1.00;;;;;;;-142.75;100.00;76546.66;5032869;28;20033;-66
2022/04/06 06:41:21;;;;;;;7.70;1.45;;;;;;;-142.75;100.00;76532.88;5033171;28;20079;-67
2022/04/06 06:43:48;;;;;;;;;;;;;;;-142.75;100.00;76528.97;5033611;28;20040;-66
2022/04/06 06:46:14;;;;;;;11.45;1.23;;;;;;;-142.75;100.00;76519.13;5033409;28;19913;-66
2022/04/06 06:48:40;;;;;;;;;;;;;;;-142.75;100.00;76519.13;5033674;28;20021;-66
2022/04/06 06:51:05;;;;;;;6.30;1.00;;;;;;;-142.75;100.00;76517.16;5032797;28;20084;-66
2022/04/06 06:53:30;;;;;;;11.30;1.23;;;;;;;-142.75;100.00;76534.84;5033218;28;20047;-66
2022/04/06 06:55:56;;;;;;;7.85;1.42;;;;;;;-142.75;100.00;76523.06;5033102;28;20079;-66
2022/04/06 06:58:21;;;;;;;12.10;1.50;;;;;;;-142.75;100.00;76523.06;5031432;28;20021;-66
2022/04/06 07:00:47;;;;;;;11.25;1.60;;;;;;;-142.75;100.00;76515.19;5032001;28;20025;-66
2022/04/06 07:03:12;;;;;;;10.70;1.60;;;;;;;-142.75;100.00;76513.22;5032591;28;20112;-66
2022/04/06 07:05:37;;;;;;;11.35;1.40;;;;;;;-142.75;100.00;76505.34;5030620;28;20065;-66
2022/04/06 07:08:03;;;;;;;7.97;0.93;;;;;;;-142.75;100.00;76503.38;5030902;28;20426;-66
2022/04/06 07:10:29;;;;;;;10.50;1.80;;;;;;;-142.75;100.00;76503.38;4996095;28;1039317;-66
2022/04/06 07:12:55;;;;;;;7.80;1.52;;;;;;;-142.75;100.00;76507.31;5027887;28;20486;-65
2022/04/06 07:15:22;;;;;;;8.93;1.88;;;;;;;-142.75;100.00;76515.19;5013120;28;20040;-66
2022/04/06 07:17:55;;;;;;;8.80;2.58;;;;;;;-142.75;100.00;76511.25;5015504;28;20164;-66
2022/04/06 07:20:22;;;;;;;11.40;1.92;;;;;;;-142.75;100.00;76523.06;5014387;28;20048;-66
2022/04/06 07:22:47;;;;;;;15.23;2.50;;;;;;;-142.75;100.00;76519.13;5018101;28;20032;-65
2022/04/06 07:25:13;;;;;;;6.35;1.48;;;;;;;-142.75;100.00;76527.00;5022374;28;20034;-65
2022/04/06 07:27:39;;;;;;;14.95;1.55;;;;;;;-142.75;100.00;76538.78;5024090;28;20065;-66
2022/04/06 07:30:06;;;;;;;7.13;1.30;;;;;;;-142.75;100.00;76534.84;5032609;28;20057;-66
2022/04/06 07:32:32;;;;;;;8.27;1.38;;;;;;;-142.75;100.00;76538.78;5032734;28;20033;-66
2022/04/06 07:34:58;;;;;;;9.60;1.52;;;;;;;-142.75;100.00;76530.91;5031407;28;20029;-67
2022/04/06 07:37:23;;;;;;;10.63;1.63;;;;;;;-142.75;100.00;76528.97;5032762;28;20021;-67
2022/04/06 07:39:48;;;;;;;10.93;2.20;;;;;;;-142.75;100.00;76530.91;5032225;28;20029;-67
2022/04/06 07:42:14;;;;;;;10.07;1.92;;;;;;;-142.75;100.00;76544.69;5032799;28;20135;-67
2022/04/06 07:44:39;;;;;;;16.42;1.88;;;;;;;-142.75;100.00;76542.72;5032803;28;20097;-67
2022/04/06 07:47:05;;;;;;;7.25;1.67;;;;;;;-142.75;100.00;76534.84;5032590;28;20049;-68
2022/04/06 07:49:30;;;;;;;11.52;2.25;;;;;;;-142.75;100.00;76538.78;5032348;28;20022;-67
2022/04/06 07:51:55;;;;;;;10.23;1.70;;;;;;;-142.75;100.00;76546.66;5032567;28;20057;-67
2022/04/06 07:54:21;;;;;;;11.47;1.90;;;;;;;-142.75;100.00;76540.75;5032408;28;20275;-67
2022/04/06 07:56:47;;;;;;;9.77;2.10;;;;;;;-142.75;100.00;76550.59;5031045;28;20278;-67
2022/04/06 07:59:12;;;;;;;8.20;2.00;;;;;;;-142.75;100.00;76548.63;5032143;28;20272;-66
2022/04/06 08:01:37;;;;;;;10.15;2.00;;;;;;;-142.75;100.00;76536.84;5031221;28;20022;-66
2022/04/06 08:04:03;;;;;;;8.23;1.75;;;;;;;-142.75;100.00;76544.69;5032504;28;20034;-67
2022/04/06 08:06:29;;;;;;;15.57;2.25;;;;;;;-142.75;100.00;76538.78;5032290;28;20391;-67
2022/04/06 08:08:54;;;;;;;16.30;2.10;;;;;;;-142.75;100.00;76540.75;5031883;28;20036;-67
2022/04/06 08:11:20;;;;;;;14.27;1.45;;;;;;;-142.75;100.00;76532.88;5039549;22;20860;-67
2022/04/06 08:13:46;;;;;;;16.15;2.55;;;;;;;-142.75;100.00;76534.84;5018249;28;20554;-67
2022/04/06 08:16:13;;;;;;;9.18;1.90;;;;;;;-142.75;100.00;76538.78;5019130;28;20022;-67
2022/04/06 08:18:39;;;;;;;10.40;2.25;;;;;;;-142.75;100.00;76532.88;5021237;28;20021;-67
2022/04/06 08:21:09;;;;;;;10.20;2.00;;;;;;;-142.75;100.00;76527.00;5020976;28;20116;-67
2022/04/06 08:24:13;;;;;;;13.20;2.05;;;;;;;-142.75;100.00;76536.84;5013728;28;20124;-67
2022/04/06 08:26:38;;;;;;;12.05;2.13;;;;;;;-142.75;100.00;76530.91;4916122;29;20036;-66
2022/04/06 08:29:05;;;;;;;11.82;2.20;;;;;;;-142.75;100.00;76534.84;4996873;28;20041;-67
2022/04/06 08:31:38;;;;;;;13.13;2.22;;;;;;;-142.75;100.00;76532.88;5012896;28;20428;-67
2022/04/06 08:34:04;;;;;;;10.50;2.70;;;;;;;-142.75;100.00;76534.84;5021098;28;20060;-68
2022/04/06 08:36:47;;;;;;;7.18;2.67;;;;;;;-142.75;100.00;76527.00;5029305;28;20044;-68
2022/04/06 08:39:15;;;;;;;8.00;2.47;;;;;;;-142.75;100.00;76534.84;4985699;28;20034;-66
2022/04/06 08:42:19;;;;;;;7.25;2.42;;;;;;;-142.75;100.00;76536.84;5028205;28;20029;-68
2022/04/06 08:44:45;;;;;;;11.63;2.58;;;;;;;-142.75;100.00;76540.75;5016162;28;20099;-68
2022/04/06 08:47:10;;;;;;;10.48;3.08;;;;;;;-142.75;100.00;76550.59;5029429;28;20539;-67
2022/04/06 08:49:36;;;;;;;8.05;3.30;;;;;;;-142.75;100.00;76534.84;5030146;28;20037;-68
2022/04/06 08:52:03;;;;;;;9.18;2.67;;;;;;;-142.75;100.00;76536.84;5031473;28;20083;-67
2022/04/06 08:54:29;;;;;;;12.45;3.72;;;;;;;-142.75;100.00;76542.72;5030978;28;20035;-67
2022/04/06 08:56:55;;;;;;;13.95;3.10;;;;;;;-142.75;100.00;76552.56;5030226;28;20479;-66
2022/04/06 08:59:21;;;;;;;13.30;3.65;;;;;;;-142.75;100.00;76552.56;5031055;28;20030;-65
2022/04/06 09:01:46;;;;;;;11.88;3.10;;;;;;;-142.75;100.00;76554.53;5041626;28;20060;-67
2022/04/06 09:04:12;;;;;;;12.77;3.10;;;;;;;-142.75;100.00;76550.59;5011694;28;20088;-67
2022/04/06 09:06:42;;;;;;;10.90;3.70;;;;;;;-142.75;100.00;76556.50;5011484;28;20018;-67
2022/04/06 09:09:09;;;;;;;10.35;3.53;;;;;;;-142.75;100.00;76558.47;5011144;28;20021;-67
2022/04/06 09:11:44;;;;;;;14.18;4.50;;;;;;;-142.75;100.00;76544.69;5011405;28;20049;-67
2022/04/06 09:14:11;;;;;;;15.63;4.30;;;;;;;-142.75;100.00;76558.47;5011314;28;20487;-67
2022/04/06 09:16:37;;;;;;;12.02;4.78;;;;;;;-142.75;100.00;76546.66;5011706;28;20022;-67
2022/04/06 09:19:10;;;;;;;14.02;5.15;;;;;;;-142.75;100.00;76536.84;5007876;28;20100;-67
2022/04/06 09:21:41;;;;;;;14.60;4.90;;;;;;;-142.75;100.00;76538.78;5009700;28;20028;-67
2022/04/06 09:24:13;;;;;;;14.85;5.05;;;;;;;-142.75;100.00;76532.88;5012419;28;20083;-67
2022/04/06 09:26:38;;;;;;;15.07;4.65;;;;;;;-142.75;100.00;76527.00;5009790;28;20036;-67
2022/04/06 09:29:04;;;;;;;16.70;5.00;;;;;;;-142.75;100.00;76523.06;5010495;28;20105;-67
2022/04/06 09:31:38;;;;;;;13.20;5.20;;;;;;;-142.75;100.00;76513.22;5010038;28;20095;-66
2022/04/06 09:34:04;;;;;;;13.95;4.80;;;;;;;-142.75;100.00;76515.19;5010826;28;20030;-67
2022/04/06 09:36:30;;;;;;;;;;;;;;;-142.75;100.00;76495.50;5011395;28;20010;-67
2022/04/06 09:38:56;;;;;;;17.13;4.95;;;;;;;-142.75;100.00;76483.69;5016025;28;19920;-67
2022/04/06 09:41:21;;;;;;;10.88;5.13;;;;;;;-142.75;100.00;76475.81;5030545;28;20399;-67
2022/04/06 09:43:48;;;;;;;15.65;4.90;;;;;;;-142.75;100.00;76456.13;5030643;28;20110;-67
2022/04/06 09:49:08;;;;;;;14.60;4.82;;;;;;;-142.75;100.00;76448.25;5030269;28;20136;-67
2022/04/06 09:51:35;;;;;;;12.55;5.22;;;;;;;-142.75;100.00;76452.19;5029308;28;20511;-67
2022/04/06 09:54:07;;;;;;;13.10;4.50;;;;;;;-142.75;100.00;76436.44;5030387;28;20022;-67
2022/04/06 09:56:34;;;;;;;13.52;4.93;;;;;;;-142.75;100.00;76416.75;5029169;28;20025;-67
2022/04/06 09:59:01;;;;;;;12.23;4.88;;;;;;;-142.75;100.00;76418.72;5020902;28;20026;-67
2022/04/06 10:01:33;;;;;;;16.27;5.15;;;;;;;-142.75;100.00;76406.91;5031083;28;20417;-67
2022/04/06 10:04:03;;;;;;;15.02;4.65;;;;;;;-142.75;100.00;76408.88;5033161;28;20065;-66
2022/04/06 10:06:32;;;;;;;13.75;4.70;;;;;;;-142.75;100.00;76395.09;5034773;28;20398;-67
2022/04/06 10:08:59;;;;;;;14.65;5.25;;;;;;;-142.75;100.00;76387.22;5033407;28;20021;-66
2022/04/06 10:11:24;;;;;;;16.05;4.00;;;;;;;-142.75;100.00;76397.06;5032190;28;20022;-66
2022/04/06 10:13:51;;;;;;;11.10;3.75;;;;;;;-142.75;100.00;76385.25;5048092;28;20498;-67
2022/04/06 10:16:17;;;;;;;10.60;4.20;;;;;;;-142.75;100.00;76369.50;5034448;28;20112;-67
2022/04/06 10:18:44;;;;;;;10.27;4.03;;;;;;;-142.75;100.00;76347.84;5034148;28;20104;-65
2022/04/06 10:21:41;;;;;;;17.58;4.40;;;;;;;-142.75;100.00;76310.47;5034346;28;20035;-66
2022/04/06 10:24:54;;;;;;;11.65;3.10;;;;;;;-142.75;100.00;76292.75;5016119;28;20036;-67
2022/04/06 10:27:39;;;;;;;13.77;4.20;;;;;;;-142.75;100.00;76282.91;5028029;28;20042;-68
2022/04/06 10:30:15;;;;;;;13.20;3.60;;;;;;;-142.75;100.00;76280.94;5049261;28;20021;-67
2022/04/06 10:32:48;;;;;;;9.52;3.17;;;;;;;-142.75;100.00;76294.72;5034053;28;20029;-67
2022/04/06 10:35:23;;;;;;;10.38;3.05;;;;;;;-142.75;100.00;76286.84;5034189;28;20033;-67
2022/04/06 10:38:11;;;;;;;7.43;2.95;;;;;;;-142.75;100.00;76286.84;5033977;28;20502;-67
2022/04/06 10:40:46;;;;;;;12.80;3.50;;;;;;;-142.75;100.00;76282.91;5033937;28;20036;-67
2022/04/06 10:43:36;;;;;;;8.45;2.63;;;;;;;-142.75;100.00;76278.97;5033985;28;20029;-67
2022/04/06 10:46:06;;;;;;;12.18;2.95;;;;;;;-142.75;100.00;76265.19;5032637;28;20048;-68
2022/04/06 10:48:31;;;;;;;7.18;2.55;;;;;;;-142.75;100.00;76255.34;5033415;28;20034;-67
2022/04/06 10:51:40;;;;;;;10.70;2.75;;;;;;;-142.75;100.00;76253.38;5032464;28;20118;-66
2022/04/06 10:54:11;;;;;;;8.05;2.28;;;;;;;-142.75;100.00;76243.53;5023091;28;20037;-67
2022/04/06 10:56:58;;;;;;;6.88;2.28;;;;;;;-142.75;100.00;76225.81;5033831;28;20100;-67
2022/04/06 10:59:24;;;;;;;7.75;2.85;;;;;;;-142.75;100.00;76227.78;5032121;28;20399;-66
2022/04/06 11:02:12;;;;;;;9.23;2.80;;;;;;;-142.75;100.00;76231.72;5032228;28;20018;-67
2022/04/06 11:04:39;;;;;;;7.15;2.55;;;;;;;-142.75;100.00;76227.78;5033500;28;20491;-67
2022/04/06 11:07:05;;;;;;;7.78;2.92;;;;;;;-142.75;100.00;76219.91;5048864;28;20022;-67
2022/04/06 11:12:34;;;;;;;7.93;3.05;;;;;;;-142.75;100.00;76210.06;5033220;28;20044;-67
2022/04/06 11:14:59;;;;;;;7.70;2.75;;;;;;;-142.75;100.00;76221.88;5033459;28;20037;-67
2022/04/06 11:17:38;;;;;;;11.23;3.67;;;;;;;-142.75;100.00;76223.84;5031915;28;20117;-67
2022/04/06 11:20:09;;;;;;;12.13;3.30;;;;;;;-142.75;100.00;76241.56;5033299;28;20124;-67